Terminal Aerodrome Forecast
Issued by NWS

Home | Current Version | Previous Version | Text Only | Print | Product List | Glossary On
Versions: 1 2 3 4 5 6 7 8 9 10 11 12 13
000
FTUS45 KABQ 261121
TAFAEG
TAF
KAEG 261121Z 2612/2712 29005KT P6SM FEW100
     FM261900 26010KT P6SM SCT080
     FM270000 25010KT P6SM BKN070
     FM270600 30006KT P6SM FEW070 BKN250=

USA.gov is the U.S. government's official web portal to all federal, state and local government web resources and services.